Terminal Aerodrome Forecast
Issued by NWS Missoula, MT

Home | Current Version | Previous Version | Text Only | Print | Product List | Glossary On
Versions: 1 2 3 4 5 6 7 8 9 10 11 12 13 14 15
000
FTUS45 KMSO 282320
TAFGPI
TAF
KGPI 282320Z 2900/2924 24012G20KT P6SM SKC
     FM290200 31010KT P6SM VCSH BKN100
     FM290700 03008KT P6SM SCT100
     FM291400 08010KT P6SM SCT100=

USA.gov is the U.S. government's official web portal to all federal, state and local government web resources and services.